Time;durP1;ratioP1;P1;durP2;ratioP2;P2;SDS_P1;SDS_P2;PMS_P1;PMS_P2;Temp;Humidity;BMP_temperature;BMP_pressure;BME280_temperature;BME280_humidity;BME280_pressure;Samples;Min_cycle;Max_cycle;Signal;HPM_P1;HPM_P2
2022/11/24 00:02:10;;;;;;;24.83;8.27;;;6.70;99.90;;;;;;6313963;22;20054;-90
2022/11/24 00:04:47;;;;;;;25.53;9.33;;;6.80;99.90;;;;;;6311577;22;20038;-90
2022/11/24 00:07:22;;;;;;;22.97;8.50;;;5.80;99.90;;;;;;6339420;22;20007;-90
2022/11/24 00:09:53;;;;;;;23.93;8.03;;;6.70;99.90;;;;;;6338206;22;20057;-90
2022/11/24 00:14:53;;;;;;;39.30;8.77;;;6.60;99.90;;;;;;6307608;22;20359;-90
2022/11/24 00:17:22;;;;;;;25.43;8.67;;;6.60;99.90;;;;;;6278837;22;20015;-90
2022/11/24 00:20:19;;;;;;;18.30;7.37;;;6.60;99.90;;;;;;6316642;22;20006;-90
2022/11/24 00:22:48;;;;;;;18.23;6.97;;;6.60;99.90;;;;;;6354235;22;20014;-90
2022/11/24 00:25:13;;;;;;;20.53;7.30;;;7.10;99.90;;;;;;6401146;22;20025;-90
2022/11/24 00:27:39;;;;;;;24.00;7.90;;;6.50;99.90;;;;;;6373700;22;20010;-91
2022/11/24 00:30:11;;;;;;;24.10;7.63;;;7.60;99.90;;;;;;6373471;22;20021;-89
2022/11/24 00:32:37;;;;;;;18.53;7.27;;;6.40;99.90;;;;;;6373211;22;20368;-91
2022/11/24 00:35:03;;;;;;;25.17;7.60;;;6.80;99.90;;;;;;6374145;22;20010;-90
2022/11/24 00:37:29;;;;;;;25.30;7.13;;;6.50;99.90;;;;;;6373468;22;20021;-90
2022/11/24 00:39:54;;;;;;;22.53;7.33;;;6.40;99.90;;;;;;6401305;22;20302;-89
2022/11/24 00:42:20;;;;;;;21.67;6.67;;;6.50;99.90;;;;;;6373971;22;20420;-89
2022/11/24 00:44:46;;;;;;;23.90;7.30;;;6.20;99.90;;;;;;6374893;22;20010;-89
2022/11/24 00:47:24;;;;;;;22.37;7.13;;;7.60;99.90;;;;;;6373620;22;20371;-90
2022/11/24 00:49:56;;;;;;;22.40;7.67;;;6.30;99.90;;;;;;6401521;22;20043;-89
2022/11/24 00:52:36;;;;;;;23.03;6.70;;;6.30;99.90;;;;;;6400787;22;20022;-90
2022/11/24 00:55:11;;;;;;;22.80;6.83;;;6.30;99.90;;;;;;6377829;22;20022;-89
2022/11/24 00:57:39;;;;;;;23.37;7.43;;;6.30;99.90;;;;;;6373767;22;20043;-89
2022/11/24 01:00:09;;;;;;;22.83;7.10;;;6.20;99.90;;;;;;6372928;22;20093;-89
2022/11/24 01:02:34;;;;;;;23.13;6.83;;;6.10;99.90;;;;;;6377347;22;20010;-89
2022/11/24 01:05:03;;;;;;;23.10;7.50;;;6.70;99.90;;;;;;6334735;22;20018;-89
2022/11/24 01:07:29;;;;;;;24.97;6.77;;;6.20;99.90;;;;;;6336781;22;20072;-88
2022/11/24 01:09:55;;;;;;;21.17;6.80;;;6.20;99.90;;;;;;6310767;22;20021;-89
2022/11/24 01:12:21;;;;;;;22.13;7.10;;;6.40;99.90;;;;;;6310546;22;20101;-90
2022/11/24 01:14:46;;;;;;;24.83;7.70;;;6.00;99.90;;;;;;6309177;22;20025;-89
2022/11/24 01:17:51;;;;;;;22.13;6.90;;;6.40;99.90;;;;;;6310393;22;20046;-90
2022/11/24 01:21:08;;;;;;;25.23;7.13;;;6.10;99.90;;;;;;6186046;23;20024;-89
2022/11/24 01:23:34;;;;;;;22.70;5.93;;;5.30;99.90;;;;;;6185904;23;20036;-90
2022/11/24 01:26:08;;;;;;;23.27;6.50;;;6.40;99.90;;;;;;6187247;23;20381;-89
2022/11/24 01:28:40;;;;;;;23.00;7.00;;;5.90;99.90;;;;;;6185970;23;20107;-90
2022/11/24 01:31:10;;;;;;;19.67;6.30;;;7.00;99.90;;;;;;6250060;22;20010;-88
2022/11/24 01:33:44;;;;;;;20.60;5.97;;;6.00;99.90;;;;;;6337046;22;20061;-90
2022/11/24 01:36:10;;;;;;;23.40;6.30;;;5.90;99.90;;;;;;6309171;22;20017;-89
2022/11/24 01:38:42;;;;;;;20.43;7.03;;;6.00;99.90;;;;;;6337660;22;20342;-89
2022/11/24 01:41:22;;;;;;;21.57;6.37;;;5.80;99.90;;;;;;6337060;22;20056;-89
2022/11/24 01:44:00;;;;;;;22.13;5.80;;;5.30;99.90;;;;;;6338018;22;20320;-89
2022/11/24 01:46:40;;;;;;;19.33;6.30;;;5.80;99.90;;;;;;6337878;22;20019;-90
2022/11/24 01:49:53;;;;;;;21.03;5.50;;;6.10;99.90;;;;;;6330163;22;20343;-90
2022/11/24 01:52:56;;;;;;;21.57;5.63;;;6.60;99.90;;;;;;6267846;22;20124;-90
2022/11/24 01:55:46;;;;;;;21.77;6.13;;;6.00;99.90;;;;;;6280402;22;20011;-89
2022/11/24 01:58:32;;;;;;;21.00;5.57;;;5.80;99.90;;;;;;6281077;22;20011;-89
2022/11/24 02:01:13;;;;;;;17.47;5.70;;;6.00;99.90;;;;;;6286181;22;20019;-89
2022/11/24 02:07:09;;;;;;;;;;;;;;;;;;;;;
2022/11/24 02:10:14;;;;;;;26.60;5.83;;;6.60;99.90;;;;;;6232880;22;20015;-89
2022/11/24 02:12:52;;;;;;;23.60;5.30;;;5.40;99.90;;;;;;6318382;22;20007;-89
2022/11/24 02:15:34;;;;;;;24.37;5.63;;;6.90;99.90;;;;;;6304937;22;20019;-89
2022/11/24 02:18:24;;;;;;;24.90;5.17;;;7.50;99.90;;;;;;6282137;22;20012;-89
2022/11/24 02:21:02;;;;;;;23.63;5.60;;;6.30;99.90;;;;;;6281133;22;20118;-90
2022/11/24 02:23:53;;;;;;;21.00;5.20;;;6.20;99.90;;;;;;6279584;22;20064;-89
2022/11/24 02:26:34;;;;;;;24.60;5.20;;;6.30;99.90;;;;;;6307993;22;20041;-89
2022/11/24 02:29:15;;;;;;;25.00;5.27;;;6.20;99.90;;;;;;6280980;22;20011;-89
2022/11/24 02:32:02;;;;;;;25.60;5.80;;;7.20;99.90;;;;;;6285249;22;20060;-89
2022/11/24 02:34:36;;;;;;;19.83;5.13;;;6.40;99.90;;;;;;6281055;22;20023;-89
2022/11/24 02:37:17;;;;;;;20.37;4.57;;;6.30;99.90;;;;;;6281126;22;20443;-90
2022/11/24 02:40:00;;;;;;;21.63;4.77;;;7.30;99.90;;;;;;6311646;22;20065;-90
2022/11/24 02:42:54;;;;;;;24.58;4.50;;;6.20;99.90;;;;;;6280085;22;20049;-90
2022/11/24 02:45:30;;;;;;;;;;;;;;;;;;;;;
2022/11/24 02:48:21;;;;;;;27.97;5.03;;;6.40;99.90;;;;;;6182880;23;20497;-89
2022/11/24 02:51:06;;;;;;;28.47;5.20;;;6.30;99.90;;;;;;6187553;22;20083;-89
2022/11/24 02:53:46;;;;;;;18.07;4.70;;;6.20;99.90;;;;;;6307335;22;20068;-89
2022/11/24 02:56:30;;;;;;;23.77;5.03;;;6.30;99.90;;;;;;6308422;22;20023;-89
2022/11/24 02:59:06;;;;;;;20.55;4.95;;;6.40;99.90;;;;;;6306493;22;20150;-89
2022/11/24 03:01:45;;;;;;;22.63;4.83;;;6.40;99.90;;;;;;6280202;22;20037;-89
2022/11/24 03:04:13;;;;;;;23.10;4.70;;;6.40;99.90;;;;;;6280687;22;20029;-88
2022/11/24 03:06:47;;;;;;;21.60;4.40;;;6.60;99.90;;;;;;6305838;22;20054;-89
2022/11/24 03:09:25;;;;;;;22.60;4.57;;;6.40;99.90;;;;;;6279834;22;20025;-90
2022/11/24 03:11:50;;;;;;;22.23;4.70;;;6.40;99.90;;;;;;6280209;22;20014;-89
2022/11/24 03:14:16;;;;;;;19.93;4.83;;;6.40;99.90;;;;;;6279394;22;20019;-90
2022/11/24 03:16:51;;;;;;;23.07;4.40;;;6.40;99.90;;;;;;6280109;22;20011;-89
2022/11/24 03:19:32;;;;;;;21.90;4.67;;;7.40;99.90;;;;;;6280811;22;20046;-89
2022/11/24 03:22:07;;;;;;;20.80;4.83;;;7.40;99.90;;;;;;6280338;22;20011;-89
2022/11/24 03:24:44;;;;;;;23.37;5.60;;;6.50;99.90;;;;;;6279836;22;20051;-89
2022/11/24 03:27:16;;;;;;;19.17;4.53;;;6.40;99.90;;;;;;6279952;22;20019;-89
2022/11/24 03:29:48;;;;;;;20.77;4.50;;;6.50;99.90;;;;;;6307358;22;20096;-89
2022/11/24 03:32:19;;;;;;;17.43;3.87;;;7.00;99.90;;;;;;6307747;22;20374;-89
2022/11/24 03:35:00;;;;;;;17.93;4.27;;;6.70;99.90;;;;;;6306908;22;20011;-89
2022/11/24 03:37:43;;;;;;;19.80;4.60;;;6.70;99.90;;;;;;6308259;22;20015;-89
2022/11/24 03:40:25;;;;;;;20.10;4.22;;;7.90;99.90;;;;;;6283109;22;20013;-89
2022/11/24 03:43:03;;;;;;;16.20;4.20;;;6.80;99.90;;;;;;6279171;22;20011;-89
2022/11/24 03:45:39;;;;;;;23.70;4.40;;;6.90;99.90;;;;;;6279833;22;20051;-90
2022/11/24 03:48:15;;;;;;;15.03;3.80;;;6.90;99.90;;;;;;6279072;22;20098;-89
2022/11/24 03:51:23;;;;;;;15.83;3.97;;;6.80;99.90;;;;;;6284321;22;20016;-88
2022/11/24 03:54:06;;;;;;;22.47;4.00;;;6.70;99.90;;;;;;6280164;22;20019;-89
2022/11/24 03:56:38;;;;;;;17.42;3.90;;;6.80;99.90;;;;;;6278353;22;20078;-89
2022/11/24 03:59:09;;;;;;;19.80;3.60;;;6.60;99.90;;;;;;6307298;22;20018;-89
2022/11/24 04:01:41;;;;;;;20.03;3.87;;;6.70;99.90;;;;;;6280206;22;20013;-89
2022/11/24 04:04:19;;;;;;;22.20;3.90;;;7.20;99.90;;;;;;6279475;22;20021;-89
2022/11/24 04:06:47;;;;;;;21.23;4.13;;;6.60;99.90;;;;;;6311306;22;20072;-89
2022/11/24 04:09:21;;;;;;;17.40;3.67;;;7.10;99.90;;;;;;6280166;22;20451;-89
2022/11/24 04:15:00;;;;;;;20.63;3.90;;;6.50;99.90;;;;;;6312042;22;20094;-89
2022/11/24 04:17:31;;;;;;;20.77;4.00;;;6.10;99.90;;;;;;6307775;22;20019;-89
2022/11/24 04:19:56;;;;;;;19.93;3.80;;;6.00;99.90;;;;;;6307524;22;20237;-89
2022/11/24 04:22:30;;;;;;;21.40;3.67;;;6.60;99.90;;;;;;6307077;22;20596;-89
2022/11/24 04:25:06;;;;;;;21.30;3.53;;;5.60;99.90;;;;;;6306449;22;20011;-89
2022/11/24 04:27:49;;;;;;;20.57;3.87;;;6.50;99.90;;;;;;6306448;22;20016;-89
2022/11/24 04:30:22;;;;;;;19.33;3.70;;;7.10;99.90;;;;;;6278728;22;20480;-89
2022/11/24 04:33:01;;;;;;;20.52;4.05;;;7.30;99.90;;;;;;6278707;22;20019;-89
2022/11/24 04:35:41;;;;;;;16.10;3.57;;;7.20;99.90;;;;;;6279201;22;20050;-89
2022/11/24 04:38:16;;;;;;;18.87;3.90;;;6.20;99.90;;;;;;6278354;22;20019;-89
2022/11/24 04:41:07;;;;;;;21.70;4.13;;;6.70;99.90;;;;;;6278599;22;20076;-89
2022/11/24 04:43:39;;;;;;;19.37;3.60;;;5.70;99.90;;;;;;6271590;22;20066;-89
2022/11/24 04:46:19;;;;;;;17.47;4.17;;;8.20;99.90;;;;;;6246105;22;20482;-89
2022/11/24 04:48:50;;;;;;;16.87;4.03;;;6.60;99.90;;;;;;6272986;22;20023;-89
2022/11/24 04:51:22;;;;;;;15.03;3.83;;;6.30;99.90;;;;;;6246387;22;20186;-89
2022/11/24 04:54:29;;;;;;;15.10;3.73;;;7.00;99.90;;;;;;6273033;22;20079;-88
2022/11/24 04:57:45;;;;;;;23.07;4.40;;;7.10;99.90;;;;;;6241682;22;20072;-89
2022/11/24 05:01:01;;;;;;;15.80;3.50;;;6.70;99.90;;;;;;6305368;22;20051;-89
2022/11/24 05:03:30;;;;;;;18.87;3.93;;;7.30;99.90;;;;;;6206160;22;20027;-89
2022/11/24 05:06:11;;;;;;;21.67;3.80;;;8.10;99.90;;;;;;6305771;22;20067;-88
2022/11/24 05:08:51;;;;;;;21.67;3.87;;;5.80;99.90;;;;;;6283125;22;20027;-89
2022/11/24 05:11:25;;;;;;;17.50;3.83;;;6.10;99.90;;;;;;6280579;22;20020;-89
2022/11/24 05:13:52;;;;;;;16.73;3.50;;;6.40;99.90;;;;;;6279242;22;20011;-89
2022/11/24 05:16:18;;;;;;;21.43;3.70;;;6.20;99.90;;;;;;6280695;22;20469;-90
2022/11/24 05:18:52;;;;;;;16.07;3.60;;;5.60;99.90;;;;;;6280517;22;20007;-89
2022/11/24 05:21:18;;;;;;;14.70;3.40;;;7.30;99.90;;;;;;6306659;22;20023;-89
2022/11/24 05:23:43;;;;;;;26.27;4.03;;;7.50;99.90;;;;;;6280835;22;20073;-88
2022/11/24 05:26:09;;;;;;;17.57;3.50;;;6.40;99.90;;;;;;6280220;22;20019;-88
2022/11/24 05:28:35;;;;;;;19.73;3.93;;;6.30;99.90;;;;;;6311207;22;20022;-88
2022/11/24 05:31:02;;;;;;;19.40;3.40;;;6.10;99.90;;;;;;6283311;22;20093;-88
2022/11/24 05:33:31;;;;;;;20.80;4.60;;;6.20;99.90;;;;;;6308391;22;20026;-89
2022/11/24 05:36:01;;;;;;;19.33;3.83;;;6.20;99.90;;;;;;6282243;22;20096;-89
2022/11/24 05:38:26;;;;;;;20.00;3.30;;;5.90;99.90;;;;;;6286583;22;20090;-89
2022/11/24 05:40:58;;;;;;;20.27;3.77;;;7.50;99.90;;;;;;6308453;22;20046;-89
2022/11/24 05:43:24;;;;;;;18.00;3.27;;;5.80;99.90;;;;;;6286728;22;20015;-89
2022/11/24 05:45:49;;;;;;;19.67;3.93;;;6.30;99.90;;;;;;6281906;22;20071;-90
2022/11/24 05:48:15;;;;;;;15.83;3.60;;;7.10;99.90;;;;;;6280352;22;20019;-89
2022/11/24 05:50:53;;;;;;;21.97;3.93;;;5.60;99.90;;;;;;6285798;22;20014;-89
2022/11/24 05:53:18;;;;;;;22.53;3.93;;;5.90;99.90;;;;;;6281945;22;20015;-89
2022/11/24 05:55:56;;;;;;;19.53;4.03;;;5.90;99.90;;;;;;6308685;22;20011;-89
2022/11/24 05:58:21;;;;;;;19.73;4.17;;;5.70;99.90;;;;;;6281259;22;20030;-89
2022/11/24 06:00:50;;;;;;;17.70;4.10;;;7.60;99.90;;;;;;6281433;22;20097;-89
2022/11/24 06:03:19;;;;;;;18.63;3.53;;;5.80;99.90;;;;;;6280999;22;20053;-89
2022/11/24 06:05:50;;;;;;;17.00;3.83;;;6.00;99.90;;;;;;6309476;22;20019;-90
2022/11/24 06:08:15;;;;;;;23.67;4.97;;;6.60;99.90;;;;;;6280881;22;20023;-90
2022/11/24 06:10:41;;;;;;;18.53;4.70;;;5.60;99.90;;;;;;6306215;22;20026;-90
2022/11/24 06:13:07;;;;;;;21.23;4.20;;;7.50;99.90;;;;;;6308301;22;20185;-89
2022/11/24 06:15:39;;;;;;;22.60;4.00;;;5.60;99.90;;;;;;6279978;22;20116;-90
2022/11/24 06:18:17;;;;;;;18.50;4.30;;;7.30;99.90;;;;;;6307952;22;20435;-89
2022/11/24 06:20:48;;;;;;;20.93;5.53;;;6.20;99.90;;;;;;6279825;22;20016;-90
2022/11/24 06:23:26;;;;;;;20.97;4.47;;;5.20;99.90;;;;;;6280424;22;20461;-89
2022/11/24 06:25:58;;;;;;;22.30;5.03;;;7.30;99.90;;;;;;6307906;22;20015;-89
2022/11/24 06:28:30;;;;;;;18.43;4.93;;;5.00;99.90;;;;;;6280105;22;20019;-89
2022/11/24 06:31:00;;;;;;;21.60;4.83;;;6.00;99.90;;;;;;6278941;22;20455;-89
2022/11/24 06:33:43;;;;;;;23.23;4.70;;;5.10;99.90;;;;;;6280478;22;20030;-89
2022/11/24 06:36:16;;;;;;;21.95;4.65;;;5.70;99.90;;;;;;6308296;22;20076;-89
2022/11/24 06:38:48;;;;;;;20.13;4.30;;;4.80;99.90;;;;;;6306788;22;20015;-89
2022/11/24 06:41:23;;;;;;;24.67;5.07;;;5.70;99.90;;;;;;6280611;22;20015;-88
2022/11/24 06:44:32;;;;;;;20.70;4.63;;;6.10;99.90;;;;;;6306925;22;20026;-89
2022/11/24 06:47:17;;;;;;;21.40;4.67;;;5.60;99.90;;;;;;6183182;23;20017;-89
2022/11/24 06:50:11;;;;;;;;;;;;;;;;;;;;;
2022/11/24 06:52:57;;;;;;;20.63;4.53;;;7.10;99.90;;;;;;6040219;23;20518;-92
2022/11/24 06:55:39;;;;;;;23.63;4.47;;;5.70;99.90;;;;;;6066139;23;20019;-87
2022/11/24 06:59:29;;;;;;;;;;;;;;;;;;;;;
2022/11/24 07:01:59;;;;;;;22.20;4.30;;;5.50;99.90;;;;;;6093785;23;20026;-86
2022/11/24 07:04:43;;;;;;;21.00;4.67;;;6.00;99.90;;;;;;6094081;23;20519;-85
2022/11/24 07:07:08;;;;;;;19.13;4.43;;;6.70;99.90;;;;;;6069923;23;20057;-85
2022/11/24 07:09:43;;;;;;;22.33;4.90;;;6.40;99.90;;;;;;6069924;23;20367;-85
2022/11/24 07:12:12;;;;;;;24.70;4.30;;;5.70;99.90;;;;;;6069082;23;20061;-85
2022/11/24 07:14:59;;;;;;;18.50;4.40;;;5.90;99.90;;;;;;6155722;23;20049;-86
2022/11/24 07:17:39;;;;;;;19.60;4.63;;;5.70;99.90;;;;;;6183173;23;20017;-86
2022/11/24 07:20:54;;;;;;;22.13;4.50;;;6.30;99.90;;;;;;6296590;22;20409;-86
2022/11/24 07:23:48;;;;;;;25.88;4.63;;;5.90;99.90;;;;;;6279515;22;20164;-85
2022/11/24 07:26:28;;;;;;;;;;;;;;;;;;;;;
2022/11/24 07:29:18;;;;;;;20.50;4.67;;;7.90;99.90;;;;;;6200384;22;20472;-84
2022/11/24 07:31:44;;;;;;;18.73;4.90;;;6.50;99.90;;;;;;6279254;22;20093;-83
2022/11/24 07:34:10;;;;;;;20.33;4.87;;;6.60;99.90;;;;;;6267109;22;20011;-82
2022/11/24 07:36:49;;;;;;;21.20;4.90;;;6.80;99.90;;;;;;6278825;22;20459;-82
2022/11/24 07:39:14;;;;;;;26.30;5.47;;;7.10;99.90;;;;;;6279333;22;20116;-82
2022/11/24 07:41:52;;;;;;;17.13;5.17;;;7.00;99.90;;;;;;6305921;22;20007;-82
2022/11/24 07:44:27;;;;;;;18.80;4.63;;;6.50;99.90;;;;;;6279611;22;20015;-82
2022/11/24 07:46:52;;;;;;;17.80;4.90;;;6.10;99.90;;;;;;6305322;22;20015;-82
2022/11/24 07:49:24;;;;;;;21.30;5.80;;;6.80;99.90;;;;;;6278857;22;20023;-82
2022/11/24 07:51:50;;;;;;;22.37;5.40;;;6.90;99.90;;;;;;6278696;22;20024;-83
2022/11/24 07:54:31;;;;;;;20.77;5.13;;;6.80;99.90;;;;;;6278001;22;20019;-83
2022/11/24 07:57:05;;;;;;;18.03;4.70;;;7.60;99.90;;;;;;6307246;22;20010;-83
2022/11/24 07:59:31;;;;;;;17.77;4.40;;;7.40;99.90;;;;;;6308085;22;20088;-83
2022/11/24 08:02:15;;;;;;;18.93;4.97;;;6.90;99.90;;;;;;6305254;22;20011;-82
2022/11/24 08:04:40;;;;;;;21.45;5.22;;;6.90;99.90;;;;;;6305406;22;20483;-82
2022/11/24 08:07:06;;;;;;;17.70;4.30;;;6.50;99.90;;;;;;6306636;22;20043;-82
2022/11/24 08:09:31;;;;;;;20.47;4.87;;;6.90;99.90;;;;;;6278379;22;20012;-82
2022/11/24 08:12:00;;;;;;;21.90;4.63;;;6.90;99.90;;;;;;6307240;22;20019;-82
2022/11/24 08:14:26;;;;;;;14.80;4.40;;;6.70;99.90;;;;;;6279409;22;20094;-82
2022/11/24 08:17:03;;;;;;;18.23;5.00;;;6.90;99.90;;;;;;6305896;22;20100;-83
2022/11/24 08:19:31;;;;;;;18.73;5.10;;;7.40;99.90;;;;;;6278965;22;20054;-83
2022/11/24 08:21:56;;;;;;;19.23;4.43;;;7.30;99.90;;;;;;6278656;22;20102;-83
2022/11/24 08:24:39;;;;;;;17.50;5.10;;;7.20;99.90;;;;;;6278363;22;20042;-83
2022/11/24 08:27:18;;;;;;;18.23;4.67;;;6.50;99.90;;;;;;6306639;22;20077;-84
2022/11/24 08:30:01;;;;;;;18.10;5.20;;;6.40;99.90;;;;;;6305570;22;20015;-83
2022/11/24 08:32:27;;;;;;;17.27;5.43;;;7.90;99.90;;;;;;6279250;22;20019;-84
2022/11/24 08:35:00;;;;;;;17.87;4.60;;;6.50;99.90;;;;;;6278697;22;20393;-83
2022/11/24 08:37:41;;;;;;;17.85;4.65;;;7.40;99.90;;;;;;6278397;22;20012;-84
2022/11/24 08:40:22;;;;;;;14.40;4.27;;;7.00;99.90;;;;;;6278960;22;20015;-84
2022/11/24 08:43:01;;;;;;;15.23;5.13;;;6.40;99.90;;;;;;6306514;22;20019;-84
2022/11/24 08:45:27;;;;;;;19.10;4.67;;;7.40;99.90;;;;;;6277765;22;20061;-83
2022/11/24 08:47:58;;;;;;;21.67;4.90;;;6.00;99.90;;;;;;6306475;22;20439;-84
2022/11/24 08:50:36;;;;;;;13.93;4.43;;;7.10;99.90;;;;;;6276795;22;20019;-84
2022/11/24 08:53:07;;;;;;;20.27;5.10;;;6.10;99.90;;;;;;6279467;22;20011;-84
2022/11/24 08:55:39;;;;;;;11.80;4.20;;;6.70;99.90;;;;;;6279254;22;20038;-84
2022/11/24 08:58:05;;;;;;;20.70;5.17;;;6.70;99.90;;;;;;6309090;22;20516;-83
2022/11/24 09:00:34;;;;;;;14.07;4.70;;;7.00;99.90;;;;;;6276953;22;20023;-84
2022/11/24 09:03:15;;;;;;;21.03;6.00;;;8.10;99.90;;;;;;6279036;22;20378;-83
2022/11/24 09:05:46;;;;;;;19.63;4.80;;;6.80;99.90;;;;;;6306756;22;20012;-83
2022/11/24 09:08:17;;;;;;;16.00;6.83;;;6.70;99.90;;;;;;6307187;22;20037;-84
2022/11/24 09:10:53;;;;;;;;;;;;;;;;;;;;;
2022/11/24 09:13:32;;;;;;;17.33;5.00;;;7.90;99.90;;;;;;6277584;22;20094;-84
2022/11/24 09:16:05;;;;;;;15.70;4.83;;;6.70;99.90;;;;;;6307235;22;20011;-84
2022/11/24 09:19:13;;;;;;;16.83;5.10;;;7.40;99.90;;;;;;6278027;22;20347;-85
2022/11/24 09:21:43;;;;;;;14.90;4.50;;;6.90;99.90;;;;;;6277320;22;20054;-85
2022/11/24 09:24:09;;;;;;;13.07;4.20;;;7.50;99.90;;;;;;6307115;22;20109;-85
2022/11/24 09:27:00;;;;;;;17.40;4.80;;;8.70;99.90;;;;;;6278483;22;20019;-84
2022/11/24 09:29:25;;;;;;;15.37;4.30;;;6.20;99.90;;;;;;6305573;22;20490;-85
2022/11/24 09:32:00;;;;;;;17.60;5.57;;;7.30;99.90;;;;;;6278509;22;20016;-85
2022/11/24 09:34:25;;;;;;;14.77;4.27;;;7.20;99.90;;;;;;6305306;22;20016;-84
2022/11/24 09:36:59;;;;;;;13.20;5.07;;;7.70;99.90;;;;;;6305789;22;20213;-85
2022/11/24 09:39:34;;;;;;;;;;;8.80;99.90;;;;;;6306548;22;20011;-85
2022/11/24 09:42:42;;;;;;;15.15;7.22;;;7.90;99.90;;;;;;6279393;22;19994;-85
2022/11/24 09:45:47;;;;;;;16.97;6.80;;;7.90;99.90;;;;;;6278675;22;20061;-85
2022/11/24 09:48:30;;;;;;;15.37;4.70;;;8.70;99.90;;;;;;6278727;22;20097;-85
2022/11/24 09:51:09;;;;;;;16.60;5.77;;;7.00;99.90;;;;;;6279242;22;20051;-83
2022/11/24 09:53:52;;;;;;;15.03;4.17;;;7.80;99.90;;;;;;6277505;22;20019;-83
2022/11/24 09:56:25;;;;;;;15.80;6.75;;;8.10;99.90;;;;;;6306414;22;20426;-83
2022/11/24 09:59:18;;;;;;;17.67;6.40;;;9.00;99.90;;;;;;6305988;22;20071;-83
2022/11/24 10:01:46;;;;;;;18.30;6.93;;;8.20;99.90;;;;;;6305232;22;20086;-83
2022/11/24 10:04:15;;;;;;;12.87;4.37;;;8.30;99.90;;;;;;6305823;22;20011;-82
2022/11/24 10:07:11;;;;;;;11.33;4.30;;;8.10;99.90;;;;;;6278533;22;20046;-83
2022/11/24 10:09:47;;;;;;;10.70;4.23;;;8.30;99.90;;;;;;6305289;22;20716;-83
2022/11/24 10:12:34;;;;;;;13.27;6.13;;;8.30;99.90;;;;;;6281445;22;20015;-84
2022/11/24 10:15:26;;;;;;;17.87;6.50;;;8.50;99.90;;;;;;6309065;22;20094;-83
2022/11/24 10:18:17;;;;;;;11.97;4.07;;;8.40;99.90;;;;;;6282263;22;20011;-83
2022/11/24 10:20:55;;;;;;;12.10;4.60;;;8.60;99.90;;;;;;6307475;22;20452;-83
2022/11/24 10:23:46;;;;;;;13.13;4.60;;;8.70;99.90;;;;;;6305837;22;20011;-83
2022/11/24 10:26:36;;;;;;;13.90;4.80;;;9.50;99.90;;;;;;6217072;22;20052;-83
2022/11/24 10:29:20;;;;;;;9.80;4.30;;;8.80;99.90;;;;;;6306630;22;20068;-83
2022/11/24 10:31:47;;;;;;;11.77;4.20;;;8.90;99.90;;;;;;6307649;22;20015;-83
2022/11/24 10:34:33;;;;;;;10.90;3.90;;;9.00;99.90;;;;;;6285357;22;20012;-84
2022/11/24 10:37:42;;;;;;;11.45;4.50;;;9.00;99.90;;;;;;6276054;22;20011;-86
2022/11/24 10:40:47;;;;;;;11.33;4.27;;;8.00;99.90;;;;;;6284632;22;20029;-85
2022/11/24 10:43:29;;;;;;;12.23;4.30;;;9.20;99.90;;;;;;6307013;22;20090;-85
2022/11/24 10:46:10;;;;;;;11.77;4.63;;;9.20;99.90;;;;;;6307752;22;20021;-86
2022/11/24 10:48:59;;;;;;;12.20;4.50;;;8.80;99.90;;;;;;6279209;22;20012;-86
2022/11/24 10:52:10;;;;;;;10.23;4.07;;;11.20;99.90;;;;;;6278792;22;20098;-85
2022/11/24 10:58:28;;;;;;;13.57;4.50;;;9.50;99.90;;;;;;6226154;22;20050;-86
2022/11/24 11:01:31;;;;;;;12.93;4.93;;;9.60;99.90;;;;;;6307732;22;20060;-86
2022/11/24 11:04:00;;;;;;;12.98;4.80;;;9.90;99.90;;;;;;6307678;22;20019;-85
2022/11/24 11:06:36;;;;;;;14.50;4.80;;;10.00;99.90;;;;;;6310604;22;20016;-85
2022/11/24 11:09:05;;;;;;;17.20;6.80;;;11.20;99.90;;;;;;6280034;22;20030;-84
2022/11/24 11:12:51;;;;;;;11.85;5.15;;;10.60;99.90;;;;;;6304788;22;20045;-85
2022/11/24 11:15:30;;;;;;;13.57;5.30;;;9.70;99.90;;;;;;6265917;22;20023;-85
2022/11/24 11:18:03;;;;;;;18.50;10.00;;;11.20;99.90;;;;;;6278212;22;20382;-85
2022/11/24 11:20:50;;;;;;;12.50;5.57;;;9.70;99.90;;;;;;6279273;22;20011;-84
2022/11/24 11:23:34;;;;;;;12.07;5.75;;;9.50;99.90;;;;;;6259562;22;20018;-84
2022/11/24 11:26:38;;;;;;;33.50;21.15;;;10.00;99.90;;;;;;6278194;22;20351;-86
2022/11/24 11:29:07;;;;;;;;;;;10.10;99.90;;;;;;6278202;22;20092;-85
2022/11/24 11:31:37;;;;;;;12.68;5.45;;;9.30;99.90;;;;;;6278663;22;19926;-84
2022/11/24 11:34:22;;;;;;;31.95;15.27;;;10.70;99.90;;;;;;6278830;22;20007;-86
2022/11/24 11:37:15;;;;;;;17.17;8.53;;;9.00;99.90;;;;;;6304912;22;20098;-86
2022/11/24 11:40:53;;;;;;;23.13;11.32;;;9.60;99.90;;;;;;6307968;22;20141;-86
2022/11/24 11:44:24;;;;;;;12.57;5.50;;;9.10;99.90;;;;;;6277470;22;20031;-86
2022/11/24 11:50:39;;;;;;;;;;;9.60;99.90;;;;;;6278310;22;20027;-85
2022/11/24 11:53:33;;;;;;;19.10;8.63;;;10.00;99.90;;;;;;6277374;22;19982;-85
2022/11/24 11:56:35;;;;;;;13.15;6.15;;;10.20;99.90;;;;;;6305754;22;20194;-85
2022/11/24 11:59:16;;;;;;;14.60;6.47;;;10.30;99.90;;;;;;6306411;22;20014;-85
2022/11/24 12:02:15;;;;;;;19.33;7.93;;;10.10;99.90;;;;;;6276899;22;20019;-85
2022/11/24 12:05:19;;;;;;;16.83;8.10;;;9.70;99.90;;;;;;6277485;22;20328;-85
2022/11/24 12:08:04;;;;;;;17.10;6.87;;;10.20;99.90;;;;;;6310391;22;20010;-85
2022/11/24 12:10:36;;;;;;;15.40;6.53;;;10.10;99.90;;;;;;6306133;22;20023;-85
2022/11/24 12:13:20;;;;;;;14.37;7.33;;;10.70;99.90;;;;;;6278677;22;20011;-85
2022/11/24 12:15:55;;;;;;;13.30;6.47;;;10.20;99.90;;;;;;6283095;22;20023;-84
2022/11/24 12:18:56;;;;;;;14.45;5.95;;;11.40;99.90;;;;;;6306474;22;20086;-85
2022/11/24 12:21:39;;;;;;;15.35;7.25;;;10.30;99.90;;;;;;6305117;22;20022;-85
2022/11/24 12:25:13;;;;;;;17.15;7.45;;;10.40;99.90;;;;;;6239904;22;20013;-85
2022/11/24 12:28:48;;;;;;;15.95;6.93;;;9.80;99.90;;;;;;6277980;22;20040;-85
2022/11/24 12:32:14;;;;;;;15.77;6.53;;;11.10;99.90;;;;;;6307066;22;20071;-89
2022/11/24 12:35:08;;;;;;;15.15;5.95;;;10.90;99.90;;;;;;6257870;22;20023;-86
2022/11/24 16:03:23;;;;;;;18.77;7.13;;;7.20;99.90;;;;;;6308545;22;20023;-88
2022/11/24 16:05:59;;;;;;;19.50;6.60;;;8.10;99.90;;;;;;6310091;22;20068;-86
2022/11/24 16:08:36;;;;;;;21.93;6.73;;;8.50;99.90;;;;;;6336488;22;20014;-86
2022/11/24 16:11:17;;;;;;;16.23;5.90;;;8.00;99.90;;;;;;6338096;22;20026;-83
2022/11/24 16:13:58;;;;;;;21.50;6.20;;;6.40;99.90;;;;;;6308229;22;20392;-85
2022/11/24 16:20:08;;;;;;;21.77;6.70;;;6.90;99.90;;;;;;6282916;22;20336;-86
2022/11/24 16:22:42;;;;;;;19.27;6.00;;;6.90;99.90;;;;;;6276602;22;20026;-87
2022/11/24 16:25:13;;;;;;;;;;;7.30;99.90;;;;;;6306549;22;20007;-85
2022/11/24 16:27:57;;;;;;;17.73;6.47;;;6.90;99.90;;;;;;6277988;22;20353;-86
2022/11/24 16:30:38;;;;;;;;;;;6.70;99.90;;;;;;6308871;22;20012;-85
2022/11/24 16:33:24;;;;;;;19.20;6.77;;;7.70;99.90;;;;;;6279586;22;19915;-87
2022/11/24 16:39:23;;;;;;;22.47;6.93;;;5.60;99.90;;;;;;6157136;23;20059;-86
2022/11/24 16:42:03;;;;;;;19.90;6.30;;;6.20;99.90;;;;;;6154006;23;20791;-86
2022/11/24 16:44:35;;;;;;;19.33;6.70;;;6.30;99.90;;;;;;6179578;23;20024;-87
2022/11/24 16:50:13;;;;;;;18.80;7.30;;;6.30;99.90;;;;;;6366205;22;20022;-87
2022/11/24 16:52:51;;;;;;;22.27;6.90;;;6.50;99.90;;;;;;6247637;23;20031;-87
2022/11/24 16:55:25;;;;;;;18.97;7.03;;;6.40;99.90;;;;;;6242639;23;20020;-86
2022/11/24 16:57:56;;;;;;;22.47;8.07;;;7.30;99.90;;;;;;6242649;23;20023;-87
2022/11/24 17:00:34;;;;;;;25.30;9.27;;;5.70;99.90;;;;;;6242500;22;20015;-86
2022/11/24 17:03:12;;;;;;;23.67;9.70;;;7.40;99.90;;;;;;6279012;22;20057;-86
2022/11/24 17:07:04;;;;;;;;;;;;;;;;;;;;;
2022/11/24 17:09:51;;;;;;;24.37;9.50;;;5.40;99.90;;;;;;6149589;23;20100;-89
2022/11/24 17:12:29;;;;;;;26.93;10.07;;;7.90;99.90;;;;;;6157021;23;20103;-91
2022/11/24 17:15:15;;;;;;;27.40;12.27;;;6.10;99.90;;;;;;6183217;23;20024;-91
2022/11/24 17:18:04;;;;;;;24.50;9.60;;;5.50;99.90;;;;;;6155815;23;20016;-90
2022/11/24 17:24:16;;;;;;;23.30;8.70;;;5.90;99.90;;;;;;6217103;23;20118;-89
2022/11/24 17:26:58;;;;;;;23.17;8.17;;;5.80;99.90;;;;;;6187696;22;20022;-89
2022/11/24 17:29:30;;;;;;;27.80;8.53;;;6.10;99.90;;;;;;6276309;22;20015;-88
2022/11/24 17:32:09;;;;;;;18.80;6.97;;;6.20;99.90;;;;;;6277623;22;20312;-88
2022/11/24 17:34:44;;;;;;;25.97;8.17;;;7.20;99.90;;;;;;6277786;22;20027;-89
2022/11/24 17:37:14;;;;;;;22.70;8.40;;;5.60;99.90;;;;;;6278307;22;20019;-89
2022/11/24 17:39:50;;;;;;;25.63;8.17;;;5.90;99.90;;;;;;6275411;22;20057;-89
2022/11/24 17:42:25;;;;;;;26.33;7.57;;;6.30;99.90;;;;;;6278203;22;20019;-89
2022/11/24 17:49:02;;;;;;;21.73;6.43;;;6.30;99.90;;;;;;6033374;23;20034;-89
2022/11/24 17:52:06;;;;;;;26.87;7.23;;;6.60;99.90;;;;;;6013498;23;20022;-89
2022/11/24 18:00:36;;;;;;;22.33;6.63;;;6.90;99.90;;;;;;6305968;22;20488;-89
2022/11/24 18:03:13;;;;;;;21.27;7.43;;;5.60;99.90;;;;;;6306790;22;20031;-89
2022/11/24 18:22:35;;;;;;;24.30;6.70;;;6.00;99.90;;;;;;6105322;23;20080;-86